Time;durP1;ratioP1;P1;durP2;ratioP2;P2;SDS_P1;SDS_P2;PMS_P1;PMS_P2;Temp;Humidity;BMP_temperature;BMP_pressure;BME280_temperature;BME280_humidity;BME280_pressure;Samples;Min_cycle;Max_cycle;Signal;HPM_P1;HPM_P2
2021/12/26 00:01:26;;;;;;;15.33;9.10;;;4.30;91.80;;;;;;20923753;28;20211;-65
2021/12/26 00:11:29;;;;;;;13.20;8.70;;;4.10;91.70;;;;;;20922462;28;20247;-66
2021/12/26 00:21:30;;;;;;;13.17;8.53;;;4.10;91.70;;;;;;20921674;28;20208;-65
2021/12/26 00:31:32;;;;;;;13.80;8.87;;;4.20;91.70;;;;;;20920972;28;20232;-66
2021/12/26 00:41:35;;;;;;;12.00;8.27;;;4.20;91.70;;;;;;20920218;28;20204;-66
2021/12/26 00:51:39;;;;;;;12.17;8.03;;;4.10;91.60;;;;;;20919406;28;20258;-65
2021/12/26 01:01:40;;;;;;;12.27;7.73;;;4.20;91.70;;;;;;20919117;28;20208;-62
2021/12/26 01:11:48;;;;;;;11.13;7.37;;;4.10;91.90;;;;;;20917655;28;20235;-66
2021/12/26 01:21:50;;;;;;;10.47;7.47;;;;;;;;;;20917327;28;20230;-66
2021/12/26 01:31:52;;;;;;;11.10;7.20;;;4.10;91.60;;;;;;20916443;28;20294;-66
2021/12/26 01:42:00;;;;;;;9.83;6.70;;;4.10;91.40;;;;;;20914907;28;20207;-66
2021/12/26 01:52:05;;;;;;;9.37;6.20;;;4.00;91.20;;;;;;20914589;28;20262;-66
2021/12/26 02:02:09;;;;;;;8.77;5.93;;;4.00;91.30;;;;;;20914425;28;20208;-67
2021/12/26 02:12:11;;;;;;;7.83;5.50;;;4.00;91.20;;;;;;20913351;28;20271;-67
2021/12/26 02:22:18;;;;;;;8.07;5.50;;;3.90;91.00;;;;;;20913035;28;20208;-62
2021/12/26 02:32:20;;;;;;;8.20;5.17;;;4.00;91.30;;;;;;20912649;28;20243;-62
2021/12/26 02:51:41;;;;;;;7.77;5.20;;;3.90;90.70;;;;;;20984768;28;21123;-64
2021/12/26 03:01:43;;;;;;;6.97;4.83;;;3.90;90.70;;;;;;20984017;28;20230;-61
2021/12/26 03:11:46;;;;;;;7.60;5.10;;;3.80;90.60;;;;;;20982997;28;20673;-65
2021/12/26 03:21:51;;;;;;;8.83;5.30;;;3.90;90.60;;;;;;20982099;28;20207;-62
2021/12/26 03:37:39;;;;;;;7.10;4.57;;;3.80;90.40;;;;;;20984461;28;21130;-63
2021/12/26 03:47:41;;;;;;;7.67;5.03;;;3.90;90.40;;;;;;20983908;28;20659;-65
2021/12/26 03:57:43;;;;;;;8.40;5.10;;;3.80;90.40;;;;;;20983000;28;20268;-67
2021/12/26 04:07:45;;;;;;;7.37;4.50;;;3.90;90.40;;;;;;20981898;28;20207;-65
2021/12/26 04:17:47;;;;;;;7.70;4.80;;;3.80;90.40;;;;;;20981452;28;20268;-66
2021/12/26 04:27:50;;;;;;;9.10;5.47;;;3.80;90.40;;;;;;20980064;28;20207;-61
2021/12/26 04:37:52;;;;;;;8.03;4.90;;;3.80;90.40;;;;;;20979583;28;20265;-66
2021/12/26 04:47:54;;;;;;;7.90;4.80;;;3.80;90.50;;;;;;20930243;28;20203;-62
2021/12/26 04:57:56;;;;;;;7.63;5.20;;;3.80;90.50;;;;;;20923214;28;20203;-65
2021/12/26 05:07:58;;;;;;;8.37;5.40;;;3.90;90.50;;;;;;20922474;28;20277;-67
2021/12/26 05:18:00;;;;;;;8.70;5.23;;;3.90;90.40;;;;;;20922102;28;20682;-63
2021/12/26 05:28:03;;;;;;;7.63;5.17;;;3.90;90.50;;;;;;20920730;28;20223;-66
2021/12/26 05:38:05;;;;;;;7.07;4.63;;;3.90;90.50;;;;;;20920278;28;20257;-66
2021/12/26 05:48:06;;;;;;;7.10;4.87;;;4.00;90.50;;;;;;20919494;28;20282;-64
2021/12/26 05:58:08;;;;;;;7.20;5.17;;;3.90;90.40;;;;;;20917552;28;20663;-66
2021/12/26 06:08:10;;;;;;;7.97;5.00;;;3.80;90.40;;;;;;20917721;28;20228;-67
2021/12/26 06:18:12;;;;;;;7.60;4.77;;;3.80;90.50;;;;;;20917222;28;20207;-63
2021/12/26 06:28:13;;;;;;;8.40;5.20;;;3.90;90.50;;;;;;20915918;28;20266;-62
2021/12/26 06:38:16;;;;;;;8.30;5.13;;;3.80;90.40;;;;;;20915449;28;20257;-62
2021/12/26 06:48:18;;;;;;;8.17;4.80;;;3.70;90.50;;;;;;20915083;28;20635;-64
2021/12/26 06:58:20;;;;;;;7.53;5.33;;;3.70;90.70;;;;;;20914222;28;20666;-65
2021/12/26 07:08:22;;;;;;;8.23;4.77;;;3.80;90.80;;;;;;20913158;28;20231;-65
2021/12/26 07:18:23;;;;;;;8.90;5.40;;;3.70;91.00;;;;;;20913350;28;20207;-66
2021/12/26 07:28:25;;;;;;;8.70;5.63;;;3.90;91.00;;;;;;20912243;28;20752;-65
2021/12/26 07:38:27;;;;;;;9.80;6.23;;;3.90;91.10;;;;;;20912045;28;20663;-67
2021/12/26 07:48:49;;;;;;;11.70;6.83;;;3.90;91.20;;;;;;20911946;28;20226;-67
2021/12/26 07:58:50;;;;;;;9.27;5.93;;;3.90;91.20;;;;;;20911337;28;20301;-63
2021/12/26 08:08:52;;;;;;;11.93;6.37;;;3.90;91.30;;;;;;20910898;28;20646;-64
2021/12/26 08:18:55;;;;;;;13.83;7.27;;;3.90;91.30;;;;;;20917904;28;20291;-67
2021/12/26 08:36:49;;;;;;;10.60;7.00;;;4.00;91.70;;;;;;20984685;28;21095;-61
2021/12/26 08:46:52;;;;;;;11.07;6.90;;;4.00;91.70;;;;;;20983903;28;20393;-63
2021/12/26 08:56:54;;;;;;;14.33;7.70;;;4.10;91.90;;;;;;20981557;28;20211;-62
2021/12/26 09:15:57;;;;;;;14.73;8.00;;;4.20;92.10;;;;;;20984941;28;20553;-61
2021/12/26 09:25:59;;;;;;;11.50;7.30;;;4.20;92.10;;;;;;20983472;28;20571;-62
2021/12/26 09:36:01;;;;;;;13.37;8.00;;;4.30;92.20;;;;;;20982650;28;20728;-63
2021/12/26 09:46:02;;;;;;;14.97;8.50;;;4.40;92.10;;;;;;20982113;28;20211;-62
2021/12/26 09:56:06;;;;;;;14.70;8.80;;;4.40;92.30;;;;;;20981271;28;20290;-62
2021/12/26 10:06:13;;;;;;;12.37;8.00;;;4.40;92.30;;;;;;20980109;28;20265;-65
2021/12/26 10:16:17;;;;;;;14.37;8.47;;;4.50;92.40;;;;;;20979775;28;20208;-66
2021/12/26 10:26:26;;;;;;;16.57;8.73;;;4.60;92.40;;;;;;20929446;28;20766;-66
2021/12/26 10:36:28;;;;;;;14.07;9.20;;;4.70;92.50;;;;;;20923334;28;20254;-67
2021/12/26 10:46:31;;;;;;;16.03;9.43;;;4.50;92.40;;;;;;20922950;28;20232;-62
2021/12/26 10:56:33;;;;;;;14.30;9.47;;;4.50;92.60;;;;;;20921942;28;20228;-63
2021/12/26 11:07:00;;;;;;;14.67;9.33;;;4.60;92.70;;;;;;20920430;28;20244;-62
2021/12/26 11:17:02;;;;;;;19.27;10.03;;;4.60;92.70;;;;;;20920331;28;20258;-64
2021/12/26 11:27:05;;;;;;;14.73;10.30;;;4.80;92.80;;;;;;20919362;28;20703;-65
2021/12/26 11:37:08;;;;;;;16.33;10.03;;;4.80;92.80;;;;;;20917491;28;20200;-62
2021/12/26 11:47:40;;;;;;;16.17;10.40;;;4.80;92.70;;;;;;20917975;28;20637;-62
2021/12/26 11:58:21;;;;;;;16.97;10.03;;;4.80;92.80;;;;;;20916840;28;20258;-65
2021/12/26 12:08:35;;;;;;;16.83;10.03;;;4.90;92.90;;;;;;20915811;28;20282;-61
2021/12/26 12:18:45;;;;;;;16.93;10.93;;;4.80;93.00;;;;;;20915192;28;20211;-63
2021/12/26 12:28:47;;;;;;;19.80;11.40;;;4.70;93.40;;;;;;20914723;28;20239;-63
2021/12/26 12:38:49;;;;;;;20.93;11.17;;;4.80;93.70;;;;;;20913358;28;20204;-62
2021/12/26 12:49:08;;;;;;;20.07;11.00;;;4.70;93.90;;;;;;20912898;28;20236;-62
2021/12/26 12:59:16;;;;;;;17.47;11.17;;;4.80;94.10;;;;;;20913277;28;20570;-61
2021/12/26 13:09:18;;;;;;;18.90;11.40;;;4.80;94.20;;;;;;20911859;28;20243;-66
2021/12/26 13:19:20;;;;;;;17.80;11.27;;;4.80;94.50;;;;;;20911884;28;20254;-65
2021/12/26 13:29:21;;;;;;;19.40;11.57;;;5.00;94.60;;;;;;20911865;28;20285;-65
2021/12/26 13:39:24;;;;;;;18.60;11.63;;;4.90;94.70;;;;;;20911365;28;20258;-61
2021/12/26 13:49:26;;;;;;;22.33;11.60;;;5.00;94.90;;;;;;20910791;28;20237;-63
2021/12/26 13:59:44;;;;;;;16.43;11.30;;;5.00;94.90;;;;;;20921208;28;20548;-63
2021/12/26 14:09:48;;;;;;;19.20;11.57;;;5.00;95.00;;;;;;20925450;28;20294;-63
2021/12/26 14:19:55;;;;;;;23.27;12.47;;;4.90;95.20;;;;;;20924758;28;20617;-63
2021/12/26 14:29:59;;;;;;;20.67;12.77;;;5.00;95.50;;;;;;20924175;28;20322;-67
2021/12/26 14:40:09;;;;;;;21.83;12.80;;;5.00;95.50;;;;;;20923011;28;20254;-63
2021/12/26 14:50:23;;;;;;;18.20;15.27;;;5.20;95.70;;;;;;20918074;28;20468;-64
2021/12/26 15:00:26;;;;;;;21.50;12.83;;;5.30;95.60;;;;;;20921870;28;20210;-64
2021/12/26 15:10:42;;;;;;;23.73;13.00;;;5.10;95.50;;;;;;20920257;28;20330;-62
2021/12/26 15:20:46;;;;;;;22.50;12.93;;;5.10;95.60;;;;;;20920039;28;20200;-62
2021/12/26 15:31:03;;;;;;;19.20;12.80;;;5.10;95.50;;;;;;20919726;28;20638;-64
2021/12/26 15:41:06;;;;;;;20.07;13.07;;;5.10;95.60;;;;;;20919768;28;20655;-63
2021/12/26 15:51:09;;;;;;;22.90;13.67;;;5.10;95.70;;;;;;20917178;28;20236;-64
2021/12/26 16:01:13;;;;;;;24.47;15.17;;;5.10;95.70;;;;;;20916843;28;20208;-63
2021/12/26 16:15:30;;;;;;;27.13;14.27;;;5.10;95.80;;;;;;21068773;27;20574;-63
2021/12/26 16:25:32;;;;;;;26.60;14.13;;;5.10;95.80;;;;;;21067483;28;20203;-63
2021/12/26 16:35:35;;;;;;;24.03;14.17;;;5.10;95.80;;;;;;21073324;28;20207;-63
2021/12/26 16:48:13;;;;;;;22.27;13.50;;;5.10;95.90;;;;;;21069009;28;20660;-62
2021/12/26 16:58:15;;;;;;;23.13;13.07;;;5.10;95.90;;;;;;21067723;28;20290;-63
2021/12/26 17:08:17;;;;;;;24.73;15.13;;;5.10;95.90;;;;;;21066606;28;20210;-66
2021/12/26 17:18:18;;;;;;;21.87;14.00;;;5.10;96.00;;;;;;21065661;28;20240;-63
2021/12/26 17:28:20;;;;;;;22.03;13.33;;;5.10;95.90;;;;;;21065396;28;20207;-68
2021/12/26 17:38:22;;;;;;;22.00;13.77;;;5.10;95.80;;;;;;21063886;28;20202;-67
2021/12/26 17:48:25;;;;;;;20.53;12.77;;;5.00;95.90;;;;;;21063586;28;20210;-63
2021/12/26 17:59:32;;;;;;;24.43;14.10;;;5.00;95.90;;;;;;20984881;28;20569;-62
2021/12/26 18:09:34;;;;;;;23.37;13.07;;;5.10;95.90;;;;;;20983451;28;20200;-62
2021/12/26 18:19:35;;;;;;;22.23;13.40;;;5.10;96.00;;;;;;20984062;28;20547;-63
2021/12/26 18:29:37;;;;;;;23.60;13.67;;;5.10;95.90;;;;;;20982524;28;20249;-62
2021/12/26 18:39:39;;;;;;;25.83;13.60;;;5.10;95.90;;;;;;20981183;28;20240;-66
2021/12/26 18:49:42;;;;;;;21.90;13.83;;;5.10;95.90;;;;;;20979903;28;20203;-65
2021/12/26 18:59:46;;;;;;;20.57;12.93;;;5.10;96.00;;;;;;20979630;28;20215;-66
2021/12/26 19:09:47;;;;;;;21.23;13.47;;;5.10;96.00;;;;;;20929797;28;20208;-66
2021/12/26 19:19:49;;;;;;;25.07;14.37;;;5.10;96.00;;;;;;20923400;28;20220;-61
2021/12/26 19:29:51;;;;;;;22.60;13.83;;;5.10;96.20;;;;;;20922701;28;20205;-61
2021/12/26 19:39:53;;;;;;;23.67;14.10;;;5.10;96.30;;;;;;20921373;28;20265;-66
2021/12/26 19:49:54;;;;;;;24.73;14.83;;;5.10;96.20;;;;;;20920502;28;20236;-62
2021/12/26 19:59:56;;;;;;;24.90;14.57;;;5.10;96.30;;;;;;20920541;28;20294;-63
2021/12/26 20:09:58;;;;;;;26.80;15.20;;;5.20;96.40;;;;;;20919177;28;20217;-64
2021/12/26 20:20:00;;;;;;;24.70;14.47;;;5.30;96.40;;;;;;20917508;28;20216;-63
2021/12/26 20:30:04;;;;;;;24.83;15.20;;;5.30;96.40;;;;;;20918223;28;20695;-66
2021/12/26 20:40:06;;;;;;;25.40;15.67;;;5.30;96.60;;;;;;20916871;28;20200;-63
2021/12/26 20:50:09;;;;;;;24.03;15.23;;;5.30;96.60;;;;;;20915926;28;20235;-63
2021/12/26 21:00:11;;;;;;;25.87;15.20;;;5.30;96.80;;;;;;20915906;28;20246;-61
2021/12/26 21:10:14;;;;;;;27.10;15.80;;;5.30;96.70;;;;;;20914671;28;20301;-61
2021/12/26 21:20:17;;;;;;;26.10;15.10;;;5.30;96.80;;;;;;20914161;28;20211;-66
2021/12/26 21:30:19;;;;;;;28.10;16.90;;;5.30;96.90;;;;;;20913575;28;20694;-63
2021/12/26 21:40:21;;;;;;;26.13;15.60;;;5.20;97.10;;;;;;20913004;28;20212;-61
2021/12/26 21:50:27;;;;;;;26.57;15.73;;;5.30;97.00;;;;;;20912247;28;20289;-67
2021/12/26 22:00:34;;;;;;;28.10;15.57;;;5.30;96.90;;;;;;20912527;28;20200;-65
2021/12/26 22:10:36;;;;;;;25.43;15.60;;;5.30;97.00;;;;;;20911794;28;20576;-66
2021/12/26 22:20:38;;;;;;;29.17;16.50;;;5.40;97.10;;;;;;20911244;28;20269;-64
2021/12/26 22:30:40;;;;;;;23.80;16.10;;;5.40;97.20;;;;;;20910942;28;20285;-62
2021/12/26 22:40:42;;;;;;;28.67;16.67;;;5.40;97.20;;;;;;20917009;28;20227;-62
2021/12/26 22:50:45;;;;;;;27.43;15.97;;;5.40;97.30;;;;;;20925284;28;20297;-62
2021/12/26 23:00:50;;;;;;;27.33;16.50;;;5.50;97.30;;;;;;20925227;28;20663;-66
2021/12/26 23:10:52;;;;;;;24.57;15.60;;;5.40;97.20;;;;;;20924210;28;20232;-64
2021/12/26 23:20:56;;;;;;;26.73;16.43;;;5.40;97.40;;;;;;20923329;28;20786;-66
2021/12/26 23:30:58;;;;;;;26.60;15.70;;;5.40;97.40;;;;;;20922674;28;20285;-67
2021/12/26 23:41:06;;;;;;;28.07;15.47;;;5.40;97.40;;;;;;20921702;28;20681;-66
2021/12/26 23:51:07;;;;;;;25.13;14.53;;;5.50;97.50;;;;;;20920655;28;20298;-66
